createdAt,value
2023-02-05T00:03:31.474Z,99.90
2023-02-05T00:08:36.858Z,99.90
2023-02-05T00:13:43.570Z,99.90
2023-02-05T00:18:49.190Z,99.90
2023-02-05T00:23:54.755Z,99.90
2023-02-05T00:29:00.089Z,99.90
2023-02-05T00:34:05.619Z,99.90
2023-02-05T00:39:11.600Z,99.90
2023-02-05T00:44:16.943Z,99.90
2023-02-05T00:49:22.282Z,99.90
2023-02-05T00:54:27.583Z,99.90
2023-02-05T00:59:32.774Z,99.90
2023-02-05T01:04:38.182Z,99.90
2023-02-05T01:09:43.420Z,99.90
2023-02-05T01:14:49.012Z,99.90
2023-02-05T01:19:54.268Z,99.90
2023-02-05T01:24:59.563Z,99.90
2023-02-05T01:30:06.944Z,99.90
2023-02-05T01:35:12.227Z,99.90
2023-02-05T01:40:18.084Z,99.90
2023-02-05T01:45:26.954Z,99.90
2023-02-05T01:50:35.166Z,99.90
2023-02-05T01:55:43.350Z,99.90
2023-02-05T02:00:48.941Z,99.90
2023-02-05T02:05:54.214Z,99.90
2023-02-05T02:11:01.403Z,99.90
2023-02-05T02:16:08.424Z,99.90
2023-02-05T02:21:36.287Z,99.90
2023-02-05T02:26:50.266Z,99.90
2023-02-05T02:32:00.561Z,99.90
2023-02-05T02:37:08.761Z,99.90
2023-02-05T02:42:22.737Z,99.90
2023-02-05T02:47:31.600Z,99.90
2023-02-05T02:52:40.036Z,99.90
2023-02-05T02:57:49.108Z,99.90
2023-02-05T03:02:57.396Z,99.90
2023-02-05T03:08:14.701Z,99.90
2023-02-05T03:13:19.955Z,99.90
2023-02-05T03:18:26.237Z,99.90
2023-02-05T03:23:32.129Z,99.90
2023-02-05T03:28:37.432Z,99.90
2023-02-05T03:34:10.891Z,99.90
2023-02-05T03:39:53.503Z,99.90
2023-02-05T03:45:21.163Z,99.90
2023-02-05T03:50:35.366Z,99.90
2023-02-05T03:55:43.571Z,99.90
2023-02-05T04:00:48.897Z,99.90
2023-02-05T04:05:54.937Z,99.90
2023-02-05T04:11:00.199Z,99.90
2023-02-05T04:16:05.483Z,99.90
2023-02-05T04:21:11.135Z,99.90
2023-02-05T04:26:16.652Z,99.90
2023-02-05T04:31:22.136Z,99.90
2023-02-05T04:36:27.442Z,99.90
2023-02-05T04:41:32.692Z,99.90
2023-02-05T04:46:37.890Z,99.90
2023-02-05T04:51:43.173Z,99.90
2023-02-05T04:56:48.459Z,99.90
2023-02-05T05:01:53.596Z,99.90
2023-02-05T05:06:58.880Z,99.90
2023-02-05T05:12:04.131Z,99.90
2023-02-05T05:17:09.420Z,99.90
2023-02-05T05:22:14.623Z,99.90
2023-02-05T05:27:20.221Z,99.90
2023-02-05T05:32:25.419Z,99.90
2023-02-05T05:37:30.600Z,99.90
2023-02-05T05:42:53.574Z,99.90
2023-02-05T05:47:58.843Z,99.90
2023-02-05T05:53:04.161Z,99.90
2023-02-05T05:58:09.521Z,99.90
2023-02-05T06:03:14.889Z,99.90
2023-02-05T06:08:20.355Z,99.90
2023-02-05T06:13:26.075Z,99.90
2023-02-05T06:18:31.959Z,99.90
2023-02-05T06:23:37.189Z,99.90
2023-02-05T06:28:42.442Z,99.90
2023-02-05T06:33:47.589Z,99.90
2023-02-05T06:38:52.735Z,99.90
2023-02-05T06:43:57.996Z,99.90
2023-02-05T06:49:04.556Z,99.90
2023-02-05T06:54:09.690Z,99.90
2023-02-05T06:59:14.904Z,99.90
2023-02-05T07:04:20.125Z,99.90
2023-02-05T07:09:26.201Z,99.90
2023-02-05T07:14:31.706Z,99.90
2023-02-05T07:19:37.840Z,99.90
2023-02-05T07:24:43.316Z,99.90
2023-02-05T07:29:49.145Z,99.90
2023-02-05T07:34:54.430Z,99.90
2023-02-05T07:39:59.572Z,99.90
2023-02-05T07:45:05.394Z,99.90
2023-02-05T07:50:10.926Z,99.90
2023-02-05T07:55:16.125Z,99.90
2023-02-05T08:00:21.680Z,99.90
2023-02-05T08:05:26.955Z,99.90
2023-02-05T08:10:32.444Z,99.90
2023-02-05T08:15:39.991Z,99.90
2023-02-05T08:20:48.489Z,99.90
2023-02-05T08:25:57.857Z,99.90
2023-02-05T08:31:03.206Z,99.90
2023-02-05T08:41:55.440Z,99.90
2023-02-05T08:47:00.491Z,99.90
2023-02-05T08:52:05.751Z,99.90
2023-02-05T08:57:11.801Z,99.90
2023-02-05T09:02:17.233Z,99.90
2023-02-05T09:07:22.434Z,99.90
2023-02-05T09:12:27.818Z,99.90
2023-02-05T09:17:33.262Z,99.90
2023-02-05T09:22:38.827Z,99.90
2023-02-05T09:27:44.169Z,99.90
2023-02-05T09:32:49.595Z,99.90
2023-02-05T09:37:54.893Z,99.90
2023-02-05T09:43:25.632Z,99.90
2023-02-05T09:48:43.106Z,99.90
2023-02-05T09:53:54.226Z,99.90
2023-02-05T09:58:59.751Z,99.90
2023-02-05T10:04:07.833Z,99.90
2023-02-05T10:09:34.014Z,99.90
2023-02-05T10:15:04.559Z,98.20
2023-02-05T10:20:12.826Z,94.50
2023-02-05T10:25:37.825Z,94.40
2023-02-05T10:30:49.174Z,94.80
2023-02-05T10:36:03.405Z,95.80
2023-02-05T10:41:41.216Z,96.20
2023-02-05T10:46:52.514Z,95.40
2023-02-05T10:51:59.252Z,90.90
2023-02-05T10:57:05.272Z,93.90
2023-02-05T11:02:23.330Z,89.70
2023-02-05T11:07:48.668Z,91.10
2023-02-05T11:13:01.046Z,93.50
2023-02-05T11:18:09.008Z,94.60
2023-02-05T11:23:20.638Z,90.30
2023-02-05T11:28:31.329Z,90.80
2023-02-05T11:33:36.598Z,93.00
2023-02-05T11:38:53.949Z,97.20
2023-02-05T11:44:04.261Z,99.90
2023-02-05T11:49:12.544Z,94.30
2023-02-05T12:00:13.205Z,99.10
2023-02-05T12:05:20.982Z,97.10
2023-02-05T12:10:38.948Z,93.10
2023-02-05T12:15:58.803Z,93.20
2023-02-05T12:21:26.262Z,89.20
2023-02-05T12:26:37.199Z,90.00
2023-02-05T12:32:13.987Z,90.00
2023-02-05T12:37:28.381Z,87.70
2023-02-05T12:42:54.341Z,92.10
2023-02-05T12:48:11.649Z,93.00
2023-02-05T12:53:34.726Z,93.00
2023-02-05T12:58:49.431Z,94.30
2023-02-05T13:04:01.483Z,94.30
2023-02-05T13:09:15.855Z,94.80
2023-02-05T13:14:30.259Z,97.50
2023-02-05T13:19:41.413Z,98.20
2023-02-05T13:25:07.487Z,99.60
2023-02-05T13:30:23.595Z,99.90
2023-02-05T13:35:31.953Z,99.90
2023-02-05T13:40:46.301Z,99.90
2023-02-05T13:46:07.551Z,99.90
2023-02-05T13:51:21.392Z,99.90
2023-02-05T13:56:35.408Z,99.90
2023-02-05T14:01:43.829Z,99.90
2023-02-05T14:07:01.056Z,99.90
2023-02-05T14:12:09.434Z,99.90
2023-02-05T14:17:32.513Z,99.90
2023-02-05T14:22:43.267Z,99.90
2023-02-05T14:27:51.272Z,99.90
2023-02-05T14:33:04.896Z,99.90
2023-02-05T14:38:33.075Z,99.90
2023-02-05T14:43:40.767Z,99.90
2023-02-05T14:48:48.794Z,99.90
2023-02-05T14:53:59.945Z,99.90
2023-02-05T14:59:08.475Z,99.90
2023-02-05T15:04:37.871Z,99.90
2023-02-05T15:09:46.079Z,99.90
2023-02-05T15:14:54.275Z,99.90
2023-02-05T15:20:02.759Z,99.90
2023-02-05T15:25:13.238Z,99.90
2023-02-05T15:30:24.333Z,99.90
2023-02-05T15:35:31.963Z,99.90
2023-02-05T15:40:40.398Z,99.90
2023-02-05T15:45:46.563Z,99.90
2023-02-05T15:50:58.681Z,99.90
2023-02-05T15:56:29.579Z,99.90
2023-02-05T16:01:54.620Z,99.90
2023-02-05T16:07:02.155Z,99.90
2023-02-05T16:12:14.468Z,99.90
2023-02-05T16:17:22.658Z,99.90
2023-02-05T16:22:38.237Z,99.90
2023-02-05T16:27:46.091Z,99.90
2023-02-05T16:32:54.410Z,99.90
2023-02-05T16:38:00.989Z,99.90
2023-02-05T16:43:39.343Z,99.90
2023-02-05T16:48:50.128Z,99.90
2023-02-05T16:53:55.423Z,99.90
2023-02-05T16:59:02.833Z,99.90
2023-02-05T17:04:08.424Z,99.90
2023-02-05T17:09:17.129Z,99.90
2023-02-05T17:14:25.732Z,99.90
2023-02-05T17:19:33.265Z,99.90
2023-02-05T17:24:38.823Z,99.90
2023-02-05T17:29:44.445Z,99.90
2023-02-05T17:34:49.859Z,99.90
2023-02-05T17:39:56.845Z,99.90
2023-02-05T17:45:02.289Z,99.90
2023-02-05T17:50:07.589Z,99.90
2023-02-05T17:55:17.787Z,99.90
2023-02-05T18:00:29.071Z,99.90
2023-02-05T18:05:34.452Z,99.90
2023-02-05T18:10:42.476Z,99.90
2023-02-05T18:15:49.527Z,99.90
2023-02-05T18:20:55.046Z,99.90
2023-02-05T18:26:01.226Z,99.90
2023-02-05T18:31:09.162Z,99.90
2023-02-05T18:36:15.914Z,99.90
2023-02-05T18:41:22.436Z,99.90
2023-02-05T18:46:29.295Z,99.90
2023-02-05T18:51:35.831Z,99.90
2023-02-05T18:56:41.071Z,99.90
2023-02-05T19:01:46.445Z,99.90
2023-02-05T19:06:55.705Z,99.90
2023-02-05T19:12:01.394Z,99.90
2023-02-05T19:17:06.663Z,99.90
2023-02-05T19:22:11.980Z,99.90
2023-02-05T19:27:18.274Z,99.90
2023-02-05T19:32:25.129Z,99.90
2023-02-05T19:37:30.487Z,99.90
2023-02-05T19:42:35.936Z,99.90
2023-02-05T19:47:41.233Z,99.90
2023-02-05T19:52:46.630Z,99.90
2023-02-05T19:57:51.939Z,99.90
2023-02-05T20:02:57.644Z,99.90
2023-02-05T20:08:03.902Z,99.90
2023-02-05T20:13:11.124Z,99.90
2023-02-05T20:18:16.614Z,99.90
2023-02-05T20:23:21.958Z,99.90
2023-02-05T20:28:28.316Z,99.90
2023-02-05T20:33:34.002Z,99.90
2023-02-05T20:38:39.885Z,99.90
2023-02-05T20:43:45.425Z,99.90
2023-02-05T20:48:50.994Z,99.90
2023-02-05T20:53:59.846Z,99.90
2023-02-05T20:59:07.004Z,99.90
2023-02-05T21:04:12.864Z,99.90
2023-02-05T21:09:18.293Z,99.90
2023-02-05T21:14:24.534Z,99.90
2023-02-05T21:19:29.802Z,99.90
2023-02-05T21:24:35.157Z,99.90
2023-02-05T21:29:40.546Z,99.90
2023-02-05T21:34:45.885Z,99.90
2023-02-05T21:39:52.922Z,99.90
2023-02-05T21:44:58.345Z,99.90
2023-02-05T21:50:03.718Z,99.90
2023-02-05T21:55:09.415Z,99.90
2023-02-05T22:00:15.256Z,99.90
2023-02-05T22:05:20.584Z,99.90
2023-02-05T22:10:25.947Z,99.90
2023-02-05T22:15:31.839Z,99.90
2023-02-05T22:20:37.108Z,99.90
2023-02-05T22:25:45.316Z,99.90
2023-02-05T22:30:50.656Z,99.90
2023-02-05T22:35:56.286Z,99.90
2023-02-05T22:41:01.678Z,99.90
2023-02-05T22:46:08.958Z,99.90
2023-02-05T22:51:17.243Z,99.90
2023-02-05T22:56:23.122Z,99.90
2023-02-05T23:01:30.891Z,99.90
2023-02-05T23:06:39.316Z,99.90
2023-02-05T23:11:45.509Z,99.90
2023-02-05T23:16:51.074Z,99.90
2023-02-05T23:21:56.430Z,99.90
2023-02-05T23:27:01.643Z,99.90
2023-02-05T23:32:09.566Z,99.90
2023-02-05T23:37:14.811Z,99.90
2023-02-05T23:42:20.130Z,99.90
2023-02-05T23:47:25.481Z,99.90
2023-02-05T23:52:30.738Z,99.90
2023-02-05T23:57:36.016Z,99.90
